Time;durP1;ratioP1;P1;durP2;ratioP2;P2;SDS_P1;SDS_P2;PMS_P1;PMS_P2;Temp;Humidity;BMP_temperature;BMP_pressure;BME280_temperature;BME280_humidity;BME280_pressure;Samples;Min_cycle;Max_cycle;Signal;HPM_P1;HPM_P2
2021/06/29 00:00:40;;;;;;;1.60;1.40;;;18.70;98.00;;;;;;5049896;28;20531;-71
2021/06/29 00:03:09;;;;;;;1.50;1.30;;;18.60;98.00;;;;;;5052324;28;20524;-71
2021/06/29 00:05:39;;;;;;;1.70;1.40;;;18.60;98.00;;;;;;5050056;28;20469;-71
2021/06/29 00:08:08;;;;;;;1.33;1.20;;;18.60;98.00;;;;;;5052236;28;20497;-70
2021/06/29 00:10:37;;;;;;;1.20;1.10;;;18.70;98.00;;;;;;5049616;28;20457;-72
2021/06/29 00:13:05;;;;;;;1.40;1.30;;;18.90;98.00;;;;;;5052711;28;20489;-71
2021/06/29 00:15:33;;;;;;;2.60;1.43;;;18.70;98.00;;;;;;5050323;28;20538;-71
2021/06/29 00:18:00;;;;;;;1.20;1.20;;;18.80;98.00;;;;;;5051815;28;20463;-71
2021/06/29 00:20:28;;;;;;;1.57;1.20;;;18.80;98.00;;;;;;5049775;28;20541;-70
2021/06/29 00:22:58;;;;;;;1.53;1.30;;;18.70;98.00;;;;;;5052524;28;20929;-71
2021/06/29 00:25:25;;;;;;;1.20;1.10;;;18.60;98.00;;;;;;5048305;28;20468;-71
2021/06/29 00:27:52;;;;;;;1.60;1.40;;;18.70;98.00;;;;;;5052295;28;20462;-71
2021/06/29 00:30:20;;;;;;;1.93;1.13;;;18.70;98.00;;;;;;5049145;28;20457;-72
2021/06/29 00:32:47;;;;;;;1.53;1.20;;;18.60;98.00;;;;;;5051864;28;20568;-71
2021/06/29 00:35:16;;;;;;;1.30;1.20;;;18.80;98.00;;;;;;5048280;28;20519;-71
2021/06/29 00:37:44;;;;;;;1.80;1.20;;;18.70;98.00;;;;;;5051911;28;20508;-71
2021/06/29 00:40:14;;;;;;;1.63;1.30;;;18.60;98.00;;;;;;5049445;28;20462;-71
2021/06/29 00:42:42;;;;;;;1.30;1.20;;;18.70;98.00;;;;;;5051850;28;20450;-71
2021/06/29 00:45:12;;;;;;;1.20;1.20;;;18.80;98.00;;;;;;5049480;28;20458;-71
2021/06/29 00:47:39;;;;;;;1.30;1.20;;;18.70;98.00;;;;;;5051541;28;20462;-71
2021/06/29 00:50:08;;;;;;;1.40;1.20;;;18.50;98.00;;;;;;5049003;28;20461;-71
2021/06/29 00:52:35;;;;;;;1.40;1.30;;;18.60;98.00;;;;;;5051763;28;20485;-71
2021/06/29 00:55:03;;;;;;;1.30;1.30;;;18.70;98.00;;;;;;5049010;28;20454;-71
2021/06/29 00:57:34;;;;;;;1.80;1.37;;;18.90;98.00;;;;;;5050776;28;20454;-71
2021/06/29 01:00:01;;;;;;;1.40;1.10;;;19.10;98.00;;;;;;5048773;28;20458;-70
2021/06/29 01:02:28;;;;;;;1.30;1.10;;;19.00;98.00;;;;;;5051992;28;20461;-71
2021/06/29 01:04:55;;;;;;;1.73;1.63;;;19.00;98.00;;;;;;5049650;28;20473;-71
2021/06/29 01:07:22;;;;;;;1.40;1.20;;;19.00;98.00;;;;;;5051590;28;20477;-71
2021/06/29 01:09:49;;;;;;;1.40;1.20;;;18.80;98.00;;;;;;5049196;28;20519;-71
2021/06/29 01:12:17;;;;;;;1.93;1.33;;;18.60;98.00;;;;;;5051856;28;20489;-71
2021/06/29 01:14:46;;;;;;;1.80;1.30;;;18.50;98.00;;;;;;5050076;28;20636;-72
2021/06/29 01:17:15;;;;;;;1.40;1.10;;;18.50;98.00;;;;;;5051488;28;20465;-71
2021/06/29 01:19:48;;;;;;;1.30;1.10;;;18.40;98.00;;;;;;5051443;28;20462;-72
2021/06/29 01:22:17;;;;;;;3.20;1.20;;;18.30;98.00;;;;;;5051722;28;20858;-70
2021/06/29 01:24:49;;;;;;;2.30;1.37;;;18.20;98.00;;;;;;5050727;28;20453;-73
2021/06/29 01:27:33;;;;;;;1.60;1.20;;;18.30;98.00;;;;;;5051486;28;20541;-71
2021/06/29 01:32:48;;;;;;;1.83;1.53;;;18.40;98.00;;;;;;5051291;28;20635;-71
2021/06/29 01:35:15;;;;;;;1.30;1.30;;;18.20;98.00;;;;;;5048817;28;20515;-71
2021/06/29 01:37:44;;;;;;;1.20;1.20;;;18.20;98.00;;;;;;5051301;28;21025;-71
2021/06/29 01:40:14;;;;;;;1.20;1.17;;;18.10;98.00;;;;;;5049053;28;20466;-71
2021/06/29 01:42:42;;;;;;;1.83;1.43;;;18.20;98.00;;;;;;5051277;28;20469;-70
2021/06/29 01:45:09;;;;;;;1.30;1.20;;;18.10;98.00;;;;;;5049194;28;20461;-71
2021/06/29 01:47:52;;;;;;;1.53;1.20;;;18.20;98.00;;;;;;5051254;28;20457;-71
2021/06/29 01:50:19;;;;;;;1.20;1.20;;;18.10;98.00;;;;;;5048847;28;20468;-71
2021/06/29 01:52:47;;;;;;;1.83;1.23;;;18.00;98.00;;;;;;5051484;28;20485;-71
2021/06/29 01:55:16;;;;;;;1.87;1.27;;;18.10;98.00;;;;;;5048882;28;21258;-71
2021/06/29 01:57:46;;;;;;;1.30;1.20;;;18.30;98.00;;;;;;5051404;28;20458;-71
2021/06/29 02:00:14;;;;;;;1.90;1.40;;;18.30;98.00;;;;;;5049294;28;20834;-71
2021/06/29 02:02:42;;;;;;;1.20;1.07;;;18.50;98.00;;;;;;5051325;28;20458;-71
2021/06/29 02:05:10;;;;;;;1.20;1.10;;;18.50;98.00;;;;;;5048975;28;21513;-71
2021/06/29 02:07:37;;;;;;;1.40;1.10;;;18.60;98.00;;;;;;5051172;28;20551;-71
2021/06/29 02:10:07;;;;;;;1.50;1.20;;;18.60;98.00;;;;;;5048854;28;20464;-71
2021/06/29 02:12:34;;;;;;;1.50;1.20;;;18.50;98.00;;;;;;5051168;28;20965;-71
2021/06/29 02:15:01;;;;;;;1.27;1.10;;;18.50;98.00;;;;;;5048009;28;20462;-71
2021/06/29 02:17:28;;;;;;;1.40;1.10;;;18.60;98.00;;;;;;5051138;28;20458;-71
2021/06/29 02:19:55;;;;;;;1.43;1.37;;;18.60;98.00;;;;;;5048522;28;20454;-71
2021/06/29 02:22:22;;;;;;;1.20;1.00;;;18.60;98.00;;;;;;5050975;28;20932;-71
2021/06/29 02:24:49;;;;;;;1.50;1.30;;;18.60;98.00;;;;;;5050156;28;20465;-71
2021/06/29 02:27:17;;;;;;;1.70;1.40;;;18.60;98.00;;;;;;5051124;28;20960;-71
2021/06/29 02:29:45;;;;;;;1.30;1.10;;;18.60;98.00;;;;;;5054540;28;20466;-71
2021/06/29 02:32:12;;;;;;;1.30;1.23;;;18.60;98.00;;;;;;5051627;28;20457;-71
2021/06/29 02:34:39;;;;;;;1.30;1.10;;;18.50;98.00;;;;;;5054409;28;20469;-70
2021/06/29 02:37:06;;;;;;;1.30;1.10;;;18.60;98.00;;;;;;5051804;28;20474;-71
2021/06/29 02:39:33;;;;;;;1.60;1.10;;;18.60;98.00;;;;;;5053288;28;20458;-71
2021/06/29 02:42:02;;;;;;;1.20;0.97;;;18.60;98.00;;;;;;5052070;28;20461;-71
2021/06/29 02:44:33;;;;;;;1.20;1.03;;;18.70;98.00;;;;;;5054310;28;20477;-71
2021/06/29 02:47:00;;;;;;;1.50;1.40;;;18.80;98.00;;;;;;5051793;28;20449;-72
2021/06/29 02:49:28;;;;;;;1.20;1.10;;;18.80;98.00;;;;;;5053400;28;20458;-71
2021/06/29 02:51:56;;;;;;;1.60;1.50;;;18.70;98.00;;;;;;5050884;28;20454;-71
2021/06/29 02:54:23;;;;;;;1.20;1.10;;;18.70;98.00;;;;;;5053466;28;20560;-71
2021/06/29 02:56:50;;;;;;;1.27;1.23;;;18.60;98.00;;;;;;5050868;28;20458;-70
2021/06/29 02:59:17;;;;;;;1.40;1.20;;;18.60;98.00;;;;;;5052277;28;20465;-71
2021/06/29 03:01:46;;;;;;;1.53;1.40;;;18.50;98.00;;;;;;5051220;28;20541;-71
2021/06/29 03:04:13;;;;;;;1.57;1.10;;;18.40;98.00;;;;;;5054050;28;20465;-71
2021/06/29 03:06:40;;;;;;;1.50;1.40;;;18.40;98.00;;;;;;5051094;28;20454;-71
2021/06/29 03:09:09;;;;;;;1.40;1.27;;;18.40;98.00;;;;;;5053726;28;20531;-71
2021/06/29 03:11:37;;;;;;;1.20;1.20;;;18.40;98.00;;;;;;5051002;28;20535;-71
2021/06/29 03:14:05;;;;;;;1.20;1.17;;;18.40;98.00;;;;;;5053583;28;20606;-71
2021/06/29 03:16:32;;;;;;;1.20;1.07;;;18.40;98.00;;;;;;5051600;28;20458;-71
2021/06/29 03:19:00;;;;;;;1.30;1.10;;;18.30;98.00;;;;;;5053490;28;20512;-71
2021/06/29 03:21:27;;;;;;;1.30;1.10;;;18.20;98.00;;;;;;5050815;28;20462;-71
2021/06/29 03:23:55;;;;;;;1.20;1.00;;;18.20;98.00;;;;;;5053376;28;20547;-70
2021/06/29 03:26:22;;;;;;;2.50;1.60;;;18.20;98.00;;;;;;5051197;28;20461;-71
2021/06/29 03:28:50;;;;;;;1.63;1.10;;;18.10;98.00;;;;;;5053478;28;20512;-71
2021/06/29 03:31:17;;;;;;;1.40;1.10;;;17.90;98.00;;;;;;5050627;28;20469;-71
2021/06/29 03:33:44;;;;;;;1.20;1.10;;;17.80;98.00;;;;;;5053334;28;20571;-71
2021/06/29 03:36:13;;;;;;;1.20;1.07;;;17.80;98.00;;;;;;5051080;28;20461;-71
2021/06/29 03:38:41;;;;;;;1.40;1.20;;;17.90;98.00;;;;;;5052095;28;20503;-71
2021/06/29 03:41:08;;;;;;;1.30;1.20;;;18.00;98.00;;;;;;5049117;28;20465;-71
2021/06/29 03:43:38;;;;;;;1.30;1.30;;;18.00;98.00;;;;;;5053578;28;20461;-71
2021/06/29 03:46:06;;;;;;;1.40;1.40;;;18.20;98.00;;;;;;5050892;28;20462;-71
2021/06/29 03:48:33;;;;;;;1.37;1.20;;;18.30;98.00;;;;;;5053272;28;20468;-71
2021/06/29 03:51:00;;;;;;;1.60;1.20;;;18.20;98.00;;;;;;5050738;28;20466;-71
2021/06/29 03:53:29;;;;;;;1.20;1.20;;;18.30;98.00;;;;;;5052994;28;20477;-71
2021/06/29 03:55:56;;;;;;;1.30;1.10;;;18.10;98.00;;;;;;5049593;28;20959;-71
2021/06/29 03:58:23;;;;;;;1.40;1.40;;;18.10;98.00;;;;;;5052890;28;20512;-71
2021/06/29 04:00:51;;;;;;;1.20;1.20;;;18.10;98.00;;;;;;5049957;28;20519;-71
2021/06/29 04:03:18;;;;;;;1.20;1.17;;;18.20;98.00;;;;;;5052700;28;20458;-71
2021/06/29 04:05:46;;;;;;;1.40;1.40;;;18.30;98.00;;;;;;5049609;28;20465;-71
2021/06/29 04:08:13;;;;;;;1.87;1.40;;;18.20;98.00;;;;;;5052596;28;20956;-71
2021/06/29 04:10:41;;;;;;;1.20;1.10;;;18.10;98.00;;;;;;5050247;28;20449;-71
2021/06/29 04:13:09;;;;;;;1.47;1.23;;;18.20;98.00;;;;;;5052478;28;20486;-71
2021/06/29 04:15:36;;;;;;;1.20;1.13;;;18.30;98.00;;;;;;5049668;28;20983;-71
2021/06/29 04:18:03;;;;;;;1.37;1.27;;;18.40;98.00;;;;;;5052322;28;20466;-71
2021/06/29 04:20:30;;;;;;;1.40;1.30;;;18.40;98.00;;;;;;5050334;28;20507;-71
2021/06/29 04:23:00;;;;;;;2.90;1.30;;;18.40;98.00;;;;;;5052363;28;20511;-71
2021/06/29 04:25:27;;;;;;;1.53;1.50;;;18.40;98.00;;;;;;5049973;28;20461;-71
2021/06/29 04:27:55;;;;;;;1.23;1.10;;;18.20;98.00;;;;;;5052349;28;20462;-70
2021/06/29 04:30:23;;;;;;;1.30;1.20;;;18.30;98.00;;;;;;5049783;28;20458;-70
2021/06/29 04:32:51;;;;;;;1.40;1.20;;;18.40;98.00;;;;;;5051790;28;20468;-70
2021/06/29 04:35:18;;;;;;;1.20;1.10;;;18.40;98.00;;;;;;5049755;28;20884;-71
2021/06/29 04:37:45;;;;;;;1.20;1.10;;;18.30;98.00;;;;;;5052219;28;20524;-71
2021/06/29 04:40:15;;;;;;;1.30;1.20;;;18.20;98.00;;;;;;5050007;28;20466;-71
2021/06/29 04:42:43;;;;;;;1.20;1.20;;;18.10;98.00;;;;;;5052113;28;21006;-71
2021/06/29 04:45:17;;;;;;;1.33;1.20;;;18.00;98.00;;;;;;5049963;28;20469;-71
2021/06/29 04:47:47;;;;;;;1.47;1.30;;;17.90;98.00;;;;;;5050729;28;20523;-70
2021/06/29 04:50:17;;;;;;;1.57;1.20;;;17.90;98.00;;;;;;5049408;28;20460;-71
2021/06/29 04:52:45;;;;;;;1.77;1.30;;;17.80;98.00;;;;;;5051898;28;20465;-71
2021/06/29 04:55:14;;;;;;;1.57;1.20;;;17.80;98.00;;;;;;5049471;28;20465;-71
2021/06/29 04:57:42;;;;;;;2.30;2.00;;;17.80;98.00;;;;;;5051645;28;20473;-70
2021/06/29 05:00:19;;;;;;;1.50;1.20;;;17.80;98.00;;;;;;5049037;28;20453;-72
2021/06/29 05:02:46;;;;;;;1.53;1.37;;;17.60;98.00;;;;;;5051655;28;20515;-70
2021/06/29 05:05:14;;;;;;;1.10;1.10;;;17.70;98.00;;;;;;5049568;28;20462;-70
2021/06/29 05:07:42;;;;;;;1.40;1.30;;;17.70;98.00;;;;;;5051667;28;20469;-70
2021/06/29 05:10:17;;;;;;;1.23;1.17;;;17.80;98.00;;;;;;5050071;28;20937;-71
2021/06/29 05:12:48;;;;;;;1.40;1.30;;;17.80;98.00;;;;;;5051780;28;20548;-70
2021/06/29 05:15:17;;;;;;;1.20;1.13;;;17.90;98.00;;;;;;5049630;28;20461;-70
2021/06/29 05:17:43;;;;;;;1.40;1.40;;;18.00;98.00;;;;;;5051639;28;20972;-69
2021/06/29 05:20:17;;;;;;;1.10;1.10;;;17.80;98.00;;;;;;5049265;28;20465;-71
2021/06/29 05:22:45;;;;;;;1.53;1.50;;;17.80;98.00;;;;;;5051641;28;21010;-70
2021/06/29 05:25:13;;;;;;;1.80;1.30;;;17.80;98.00;;;;;;5049329;28;20531;-71
2021/06/29 05:27:41;;;;;;;1.40;1.30;;;17.80;98.00;;;;;;5051497;28;20462;-71
2021/06/29 05:30:12;;;;;;;1.10;1.00;;;17.90;98.00;;;;;;5050870;28;20461;-71
2021/06/29 05:32:41;;;;;;;1.27;1.17;;;18.00;98.00;;;;;;5050413;28;20805;-70
2021/06/29 05:35:09;;;;;;;1.73;1.37;;;18.00;98.00;;;;;;5050902;28;20494;-70
2021/06/29 05:37:37;;;;;;;1.17;1.13;;;18.00;98.00;;;;;;5050393;28;21029;-71
2021/06/29 05:40:06;;;;;;;1.43;1.37;;;18.00;98.00;;;;;;5050062;28;20450;-70
2021/06/29 05:42:33;;;;;;;1.30;1.27;;;18.00;98.00;;;;;;5049651;28;20462;-70
2021/06/29 05:45:00;;;;;;;1.30;1.30;;;18.00;98.00;;;;;;5051699;28;20523;-70
2021/06/29 05:47:27;;;;;;;1.20;1.10;;;17.90;98.00;;;;;;5048358;28;20835;-70
2021/06/29 05:49:56;;;;;;;1.33;1.30;;;17.90;98.00;;;;;;5051516;28;20461;-70
2021/06/29 05:52:23;;;;;;;1.13;1.13;;;17.90;98.00;;;;;;5049037;28;20551;-70
2021/06/29 05:54:51;;;;;;;1.30;1.20;;;17.90;98.00;;;;;;5051379;28;20489;-70
2021/06/29 05:57:18;;;;;;;1.10;1.10;;;17.90;98.00;;;;;;5048425;28;20936;-70
2021/06/29 05:59:45;;;;;;;1.77;1.30;;;18.00;98.00;;;;;;5051231;28;20504;-70
2021/06/29 06:02:12;;;;;;;1.10;1.00;;;18.10;98.00;;;;;;5050482;28;20515;-70
2021/06/29 06:04:39;;;;;;;1.40;1.20;;;18.00;98.00;;;;;;5054860;28;20515;-70
2021/06/29 06:07:08;;;;;;;1.20;1.10;;;18.00;98.00;;;;;;5052469;28;20462;-69
2021/06/29 06:09:35;;;;;;;1.30;1.23;;;18.10;98.00;;;;;;5054765;28;20466;-70
2021/06/29 06:12:02;;;;;;;2.27;1.47;;;18.30;98.00;;;;;;5051302;28;20527;-70
2021/06/29 06:14:29;;;;;;;1.20;1.17;;;18.50;98.00;;;;;;5054823;28;20485;-70
2021/06/29 06:16:56;;;;;;;1.30;1.30;;;18.50;98.00;;;;;;5052100;28;20480;-70
2021/06/29 06:19:24;;;;;;;1.57;1.30;;;18.40;98.00;;;;;;5054425;28;20461;-70
2021/06/29 06:21:52;;;;;;;1.30;1.20;;;18.50;98.00;;;;;;5051791;28;20952;-71
2021/06/29 06:24:20;;;;;;;1.10;1.10;;;18.60;98.00;;;;;;5054169;28;20458;-70
2021/06/29 06:26:47;;;;;;;1.20;1.13;;;18.70;98.00;;;;;;5051864;28;20519;-70
2021/06/29 06:29:14;;;;;;;1.50;1.40;;;18.80;98.00;;;;;;5054256;28;20540;-71
2021/06/29 06:31:41;;;;;;;1.20;1.20;;;19.00;98.00;;;;;;5052033;28;20477;-70
2021/06/29 06:34:08;;;;;;;1.70;1.20;;;19.10;98.00;;;;;;5054176;28;20489;-71
2021/06/29 06:36:35;;;;;;;1.40;1.40;;;18.90;98.00;;;;;;5052143;28;20515;-71
2021/06/29 06:39:04;;;;;;;1.20;1.10;;;19.00;98.00;;;;;;5054122;28;20515;-70
2021/06/29 06:41:32;;;;;;;1.53;1.30;;;19.20;98.00;;;;;;5051846;28;20515;-71
2021/06/29 06:43:59;;;;;;;1.57;1.20;;;19.20;98.00;;;;;;5054388;28;20524;-71
2021/06/29 06:46:26;;;;;;;1.50;1.40;;;19.20;98.00;;;;;;5051658;28;20449;-70
2021/06/29 06:48:54;;;;;;;1.23;1.20;;;19.20;98.00;;;;;;5054178;28;20971;-71
2021/06/29 06:51:21;;;;;;;1.20;1.10;;;19.30;98.00;;;;;;5051818;28;20511;-71
2021/06/29 06:53:50;;;;;;;1.10;1.10;;;19.50;98.00;;;;;;5053882;28;20546;-71
2021/06/29 06:56:17;;;;;;;1.47;1.30;;;19.70;98.00;;;;;;5051027;28;20454;-71
2021/06/29 06:58:47;;;;;;;1.50;1.30;;;19.70;98.00;;;;;;5053897;28;20485;-70
2021/06/29 07:01:16;;;;;;;2.17;1.20;;;19.90;98.00;;;;;;5051086;28;20462;-72
2021/06/29 07:03:44;;;;;;;1.53;1.20;;;19.80;98.00;;;;;;5053826;28;20458;-73
2021/06/29 07:06:13;;;;;;;1.57;1.30;;;20.00;98.00;;;;;;5051050;28;20454;-71
2021/06/29 07:08:40;;;;;;;1.43;1.20;;;20.10;98.00;;;;;;5051807;28;20476;-69
2021/06/29 07:11:07;;;;;;;1.20;1.20;;;20.10;98.00;;;;;;5050762;28;20522;-71
2021/06/29 07:13:35;;;;;;;1.30;1.20;;;20.10;98.00;;;;;;5052896;28;20538;-70
2021/06/29 07:16:04;;;;;;;1.73;1.47;;;20.10;98.00;;;;;;5050580;28;20514;-69
2021/06/29 07:18:32;;;;;;;1.50;1.23;;;20.20;98.00;;;;;;5053096;28;20457;-71
2021/06/29 07:21:00;;;;;;;1.30;1.17;;;20.10;98.00;;;;;;5050738;28;20524;-70
2021/06/29 07:23:27;;;;;;;1.20;1.03;;;20.00;98.00;;;;;;5052946;28;20462;-68
2021/06/29 07:25:54;;;;;;;1.20;1.20;;;20.10;98.00;;;;;;5050425;28;20519;-69
2021/06/29 07:28:21;;;;;;;1.40;1.30;;;20.40;98.00;;;;;;5052496;28;20515;-69
2021/06/29 07:30:48;;;;;;;1.20;1.10;;;21.00;98.00;;;;;;5051278;28;20515;-68
2021/06/29 07:33:17;;;;;;;1.40;1.20;;;21.10;98.00;;;;;;5053200;28;20456;-68
2021/06/29 07:35:44;;;;;;;1.93;1.50;;;21.00;98.00;;;;;;5049411;28;20489;-69
2021/06/29 07:38:11;;;;;;;1.20;1.17;;;21.40;98.00;;;;;;5052689;28;20770;-68
2021/06/29 07:40:38;;;;;;;9.43;2.30;;;21.70;98.00;;;;;;5050166;28;20493;-69
2021/06/29 07:43:06;;;;;;;1.90;1.53;;;21.80;98.00;;;;;;5052640;28;20461;-69
2021/06/29 07:45:33;;;;;;;1.30;1.10;;;21.90;98.00;;;;;;5050350;28;20466;-70
2021/06/29 07:48:02;;;;;;;1.63;1.60;;;22.00;98.00;;;;;;5053122;28;20465;-69
2021/06/29 07:50:31;;;;;;;2.33;1.47;;;22.00;98.00;;;;;;5050016;28;20468;-69
2021/06/29 07:52:59;;;;;;;2.10;1.60;;;22.00;98.00;;;;;;5051708;28;20825;-69
2021/06/29 07:55:26;;;;;;;1.97;1.60;;;22.00;98.00;;;;;;5049275;28;20496;-71
2021/06/29 07:57:54;;;;;;;1.60;1.30;;;22.00;98.00;;;;;;5052779;28;20516;-69
2021/06/29 08:00:22;;;;;;;1.57;1.20;;;21.90;98.00;;;;;;5052832;28;21034;-68
2021/06/29 08:02:49;;;;;;;1.30;1.20;;;21.80;98.00;;;;;;5051521;28;20465;-69
2021/06/29 08:05:16;;;;;;;1.33;1.30;;;21.70;98.00;;;;;;5052496;28;20933;-70
2021/06/29 08:07:45;;;;;;;1.90;1.50;;;21.80;98.00;;;;;;5049767;28;21029;-69
2021/06/29 08:10:12;;;;;;;1.30;1.30;;;21.70;98.00;;;;;;5052548;28;20480;-70
2021/06/29 08:12:39;;;;;;;1.40;1.20;;;21.70;98.00;;;;;;5050094;28;20466;-69
2021/06/29 08:15:08;;;;;;;1.20;1.20;;;21.80;98.00;;;;;;5052455;28;20493;-69
2021/06/29 08:17:41;;;;;;;1.40;1.27;;;22.00;98.00;;;;;;5050083;28;20512;-69
2021/06/29 08:20:09;;;;;;;1.30;1.17;;;22.10;98.00;;;;;;5052171;28;20987;-69
2021/06/29 08:22:36;;;;;;;1.40;1.30;;;22.10;98.00;;;;;;5049974;28;20515;-69
2021/06/29 08:25:06;;;;;;;1.57;1.40;;;22.20;98.00;;;;;;5051747;28;20461;-69
2021/06/29 08:27:34;;;;;;;1.37;1.33;;;22.20;98.00;;;;;;5050062;28;20560;-69
2021/06/29 08:30:01;;;;;;;1.37;1.33;;;22.20;98.00;;;;;;5052540;28;20454;-69
2021/06/29 08:32:28;;;;;;;1.60;1.30;;;22.20;98.00;;;;;;5049415;28;20461;-70
2021/06/29 08:34:55;;;;;;;1.43;1.40;;;22.30;98.00;;;;;;5052162;28;20542;-69
2021/06/29 08:37:22;;;;;;;1.33;1.30;;;22.30;98.00;;;;;;5049774;28;20462;-70
2021/06/29 08:39:50;;;;;;;1.20;1.20;;;22.30;98.00;;;;;;5052143;28;20462;-70
2021/06/29 08:42:21;;;;;;;1.73;1.40;;;22.60;98.00;;;;;;5049511;28;20462;-69
2021/06/29 08:44:48;;;;;;;1.40;1.37;;;22.80;98.00;;;;;;5050788;28;20964;-70
2021/06/29 08:47:16;;;;;;;1.80;1.70;;;22.90;98.00;;;;;;5049601;28;20519;-70
2021/06/29 08:49:43;;;;;;;1.30;1.30;;;22.60;98.00;;;;;;5051795;28;20527;-69
2021/06/29 08:52:11;;;;;;;3.07;1.63;;;22.60;98.00;;;;;;5049125;28;20577;-70
2021/06/29 08:54:38;;;;;;;1.50;1.20;;;22.60;98.00;;;;;;5051681;28;20889;-70
2021/06/29 08:57:07;;;;;;;1.30;1.30;;;22.50;98.00;;;;;;5049278;28;20484;-70
2021/06/29 08:59:36;;;;;;;1.97;1.50;;;22.50;98.00;;;;;;5051566;28;20535;-70
2021/06/29 09:02:04;;;;;;;1.30;1.30;;;22.70;98.00;;;;;;5048857;28;20956;-69
2021/06/29 09:04:58;;;;;;;1.27;1.20;;;22.80;98.00;;;;;;5051247;28;20450;-71
2021/06/29 09:07:27;;;;;;;2.43;1.73;;;23.00;98.00;;;;;;5048301;28;20544;-71
2021/06/29 09:09:57;;;;;;;1.97;1.70;;;23.10;98.00;;;;;;5050804;28;20516;-71
2021/06/29 09:12:55;;;;;;;2.00;1.50;;;23.30;98.00;;;;;;5048618;28;20535;-71
2021/06/29 09:15:43;;;;;;;1.87;1.40;;;23.20;98.00;;;;;;5008281;28;20488;-68
2021/06/29 09:18:19;;;;;;;1.30;1.20;;;23.40;98.00;;;;;;5046762;28;20469;-71
2021/06/29 09:20:53;;;;;;;1.50;1.40;;;23.30;98.00;;;;;;5048626;28;20595;-69
2021/06/29 09:23:23;;;;;;;1.50;1.40;;;23.30;98.00;;;;;;5050768;28;20546;-71
2021/06/29 09:25:52;;;;;;;1.97;1.40;;;23.40;98.00;;;;;;5049088;28;20461;-70
2021/06/29 09:28:21;;;;;;;1.40;1.30;;;23.50;98.00;;;;;;5050754;28;20454;-65
2021/06/29 09:30:52;;;;;;;1.60;1.33;;;23.40;98.00;;;;;;5049076;28;20457;-71
2021/06/29 09:33:21;;;;;;;1.47;1.43;;;23.40;98.00;;;;;;5049642;28;20530;-71
2021/06/29 09:35:53;;;;;;;2.03;1.30;;;23.40;98.00;;;;;;5049824;28;21532;-70
2021/06/29 09:38:24;;;;;;;1.30;1.27;;;23.70;98.00;;;;;;5055128;28;20457;-71
2021/06/29 09:40:58;;;;;;;1.20;1.20;;;24.00;98.00;;;;;;5071375;28;20456;-71
2021/06/29 09:43:27;;;;;;;1.47;1.43;;;24.10;98.00;;;;;;5074470;28;20867;-71
2021/06/29 09:45:58;;;;;;;1.80;1.60;;;24.50;98.00;;;;;;5072990;28;20590;-71
2021/06/29 09:48:45;;;;;;;1.50;1.40;;;24.70;98.00;;;;;;5074601;28;20465;-71
2021/06/29 09:51:16;;;;;;;1.47;1.20;;;24.60;98.00;;;;;;5072329;28;20505;-71
2021/06/29 09:53:43;;;;;;;1.20;1.10;;;24.80;98.00;;;;;;5074498;28;20468;-71
2021/06/29 09:56:15;;;;;;;1.57;1.33;;;24.70;98.00;;;;;;5072447;28;20955;-71
2021/06/29 09:58:46;;;;;;;1.23;1.10;;;24.50;98.00;;;;;;5074246;28;20449;-69
2021/06/29 10:01:20;;;;;;;1.67;1.30;;;24.40;98.00;;;;;;5072166;28;20460;-71
2021/06/29 10:03:50;;;;;;;1.83;1.40;;;24.40;98.00;;;;;;5072821;28;20460;-70
2021/06/29 10:06:20;;;;;;;2.17;1.60;;;24.70;98.00;;;;;;5071574;28;20464;-70
2021/06/29 10:08:49;;;;;;;1.83;1.40;;;24.80;98.00;;;;;;5073713;28;20477;-70
2021/06/29 10:11:22;;;;;;;1.40;1.37;;;24.80;98.00;;;;;;5071826;28;20464;-72
2021/06/29 10:14:00;;;;;;;1.37;1.33;;;25.00;98.00;;;;;;5074140;28;20514;-72
2021/06/29 10:16:31;;;;;;;1.70;1.60;;;25.10;98.00;;;;;;5072805;28;20488;-71
2021/06/29 10:21:46;;;;;;;1.33;1.30;;;25.10;98.00;;;;;;5073165;28;20484;-71
2021/06/29 10:24:16;;;;;;;1.47;1.40;;;25.50;98.00;;;;;;5072876;28;20460;-72
2021/06/29 10:26:46;;;;;;;1.50;1.40;;;25.60;98.00;;;;;;5071870;28;20464;-71
2021/06/29 10:29:15;;;;;;;1.20;1.10;;;25.60;98.00;;;;;;5073831;28;20468;-71
2021/06/29 10:31:47;;;;;;;1.40;1.40;;;25.30;98.00;;;;;;5071742;28;20469;-71
2021/06/29 10:34:16;;;;;;;2.17;1.50;;;25.00;97.40;;;;;;5073897;28;20471;-72
2021/06/29 10:36:49;;;;;;;1.50;1.40;;;25.10;98.00;;;;;;5072065;28;20742;-71
2021/06/29 10:39:23;;;;;;;2.57;1.50;;;25.20;98.00;;;;;;5073988;28;20457;-71
2021/06/29 10:41:53;;;;;;;1.27;1.20;;;25.50;97.50;;;;;;5072247;28;20518;-71
2021/06/29 10:44:21;;;;;;;1.90;1.40;;;25.80;98.00;;;;;;5073695;28;20886;-72
2021/06/29 10:46:55;;;;;;;1.30;1.30;;;26.10;98.00;;;;;;5071557;28;20453;-73
2021/06/29 10:49:31;;;;;;;1.30;1.10;;;26.30;96.90;;;;;;5073061;28;20460;-72
2021/06/29 10:52:01;;;;;;;1.67;1.53;;;26.20;95.70;;;;;;5071702;28;20464;-72
2021/06/29 10:54:49;;;;;;;1.30;1.30;;;25.80;96.00;;;;;;5073429;28;21042;-71
2021/06/29 10:57:18;;;;;;;1.20;1.20;;;26.00;93.10;;;;;;5071325;28;20448;-72
2021/06/29 10:59:49;;;;;;;1.30;1.30;;;25.80;94.60;;;;;;5073353;28;20841;-71
2021/06/29 11:02:30;;;;;;;1.40;1.20;;;26.10;93.90;;;;;;5071156;28;20453;-72
2021/06/29 11:04:59;;;;;;;1.30;1.30;;;26.00;93.30;;;;;;5073230;28;20484;-72
2021/06/29 11:07:43;;;;;;;2.13;1.33;;;26.30;92.50;;;;;;5070879;28;20526;-71
2021/06/29 11:10:14;;;;;;;1.20;1.20;;;26.70;92.60;;;;;;5073446;28;20464;-72
2021/06/29 11:12:50;;;;;;;1.30;1.20;;;26.80;91.10;;;;;;5071416;28;20475;-72
2021/06/29 11:15:18;;;;;;;1.30;1.20;;;26.80;92.90;;;;;;5072940;28;20515;-71
2021/06/29 11:18:03;;;;;;;1.77;1.40;;;26.90;90.30;;;;;;5071787;28;20874;-71
2021/06/29 11:20:40;;;;;;;1.40;1.37;;;27.10;90.80;;;;;;5072809;28;20460;-72
2021/06/29 11:23:10;;;;;;;1.40;1.30;;;27.10;89.40;;;;;;5070162;28;20523;-73
2021/06/29 11:25:44;;;;;;;1.40;1.17;;;27.20;88.20;;;;;;5072985;28;20453;-72
2021/06/29 11:28:15;;;;;;;1.30;1.27;;;27.50;88.60;;;;;;5071938;28;20468;-72
2021/06/29 11:31:04;;;;;;;1.30;1.20;;;27.90;88.10;;;;;;5072500;28;20552;-72
2021/06/29 11:33:57;;;;;;;1.37;1.33;;;28.10;83.60;;;;;;5072672;28;20461;-72
2021/06/29 11:36:52;;;;;;;1.53;1.20;;;28.40;87.50;;;;;;5070568;28;20489;-73
2021/06/29 11:39:38;;;;;;;1.80;1.50;;;28.40;83.20;;;;;;5072572;28;20493;-72
2021/06/29 11:42:23;;;;;;;1.50;1.50;;;28.50;86.00;;;;;;5070688;28;20457;-72
2021/06/29 11:45:02;;;;;;;1.60;1.40;;;28.60;86.00;;;;;;5072641;28;20460;-72
2021/06/29 11:47:40;;;;;;;1.30;1.30;;;28.70;87.30;;;;;;5070334;28;20552;-72
2021/06/29 11:50:23;;;;;;;1.40;1.37;;;29.00;82.50;;;;;;5072546;28;20539;-72
2021/06/29 11:52:50;;;;;;;1.30;1.23;;;29.40;83.90;;;;;;5070635;28;20951;-72
2021/06/29 11:55:19;;;;;;;1.77;1.57;;;29.60;81.80;;;;;;5072098;28;20898;-73
2021/06/29 11:57:49;;;;;;;1.30;1.20;;;29.80;82.80;;;;;;5070402;28;20457;-72
2021/06/29 12:00:30;;;;;;;1.53;1.30;;;29.50;79.70;;;;;;5071026;28;21029;-72
2021/06/29 12:02:59;;;;;;;1.30;1.30;;;28.80;81.60;;;;;;5070425;28;20488;-72
2021/06/29 12:05:30;;;;;;;1.63;1.43;;;28.90;82.50;;;;;;5071997;28;20453;-71
2021/06/29 12:07:59;;;;;;;1.30;1.30;;;29.40;83.40;;;;;;5069929;28;20472;-73
2021/06/29 12:10:29;;;;;;;1.40;1.30;;;29.70;85.00;;;;;;5071869;28;20969;-72
2021/06/29 12:12:59;;;;;;;1.37;1.20;;;29.70;81.20;;;;;;5069684;28;20464;-72
2021/06/29 12:15:29;;;;;;;2.20;1.50;;;29.90;82.20;;;;;;5071531;28;20574;-73
2021/06/29 12:18:01;;;;;;;1.30;1.23;;;30.10;81.60;;;;;;5069649;28;20464;-72
2021/06/29 12:20:39;;;;;;;1.40;1.30;;;29.90;81.20;;;;;;5150066;27;21036;-72
2021/06/29 12:23:08;;;;;;;1.60;1.50;;;29.40;83.60;;;;;;5127115;28;20952;-71
2021/06/29 12:25:37;;;;;;;1.60;1.40;;;28.70;83.40;;;;;;5129060;28;20457;-72
2021/06/29 12:28:10;;;;;;;1.30;1.30;;;28.30;82.30;;;;;;5127134;27;21015;-71
2021/06/29 12:30:39;;;;;;;1.40;1.20;;;27.70;85.90;;;;;;5129065;28;20450;-72
2021/06/29 12:33:16;;;;;;;1.70;1.60;;;27.60;86.50;;;;;;5127122;27;20880;-71
2021/06/29 12:35:48;;;;;;;1.30;1.20;;;27.80;84.70;;;;;;5128890;28;20450;-72
2021/06/29 12:38:17;;;;;;;1.20;1.07;;;28.40;86.90;;;;;;5127074;28;20454;-72
2021/06/29 12:40:46;;;;;;;1.50;1.47;;;28.80;83.00;;;;;;5128961;28;20458;-71
2021/06/29 12:43:31;;;;;;;1.57;1.40;;;28.80;83.50;;;;;;5126965;28;20450;-72
2021/06/29 12:46:13;;;;;;;1.40;1.30;;;29.00;81.40;;;;;;5126680;28;20469;-72
2021/06/29 12:48:40;;;;;;;1.60;1.30;;;29.40;82.20;;;;;;5128721;28;20454;-72
2021/06/29 12:51:10;;;;;;;1.60;1.37;;;29.80;82.30;;;;;;5109919;28;20476;-72
2021/06/29 12:53:37;;;;;;;1.67;1.37;;;30.20;81.40;;;;;;5108124;28;20837;-72
2021/06/29 12:56:16;;;;;;;1.50;1.30;;;30.10;81.20;;;;;;5106125;28;21019;-72
2021/06/29 12:58:45;;;;;;;1.90;1.40;;;29.80;79.00;;;;;;5107963;28;20489;-72
2021/06/29 13:01:13;;;;;;;1.30;1.30;;;29.40;79.40;;;;;;5105888;28;20459;-72
2021/06/29 13:03:41;;;;;;;1.50;1.30;;;29.30;83.40;;;;;;5107883;28;21020;-71
2021/06/29 13:06:11;;;;;;;1.60;1.40;;;29.10;83.40;;;;;;5105768;28;20459;-72